Time,TemperatureF,DewpointF,PressureIn,WindDirection,WindDirectionDegrees,WindSpeedMPH,WindSpeedGustMPH,Humidity,HourlyPrecipIn,Conditions,Clouds,dailyrainin,SoftwareType,DateUTC
2013-11-03 01:00:00,63.2,63.2,29.90,WNW,295,11.0,17.0,100,0.00,,---,0.00,VWS V14.01,2013-11-03 05:00:00,
2013-11-03 07:54:00,63.1,63.1,29.90,WNW,302,9.0,15.0,100,0.00,,---,0.02,VWS V14.01,2013-11-03 12:54:00,
2013-11-03 07:55:00,53.5,50.3,30.11,NNW,342,9.0,15.0,89,0.00,,---,0.00,VWS V14.01,2013-11-03 12:55:00,
2013-11-03 08:00:00,53.7,50.5,30.12,NNW,341,9.0,15.0,89,0.00,,---,0.00,VWS V14.01,2013-11-03 13:00:00,
2013-11-03 08:05:00,53.7,50.2,30.12,North,5,9.0,15.0,88,0.00,,---,0.00,VWS V14.01,2013-11-03 13:05:00,
2013-11-03 08:10:00,53.9,50.7,30.12,North,357,8.0,15.0,89,0.00,,---,0.00,VWS V14.01,2013-11-03 13:10:00,
2013-11-03 08:15:00,54.0,50.2,30.13,North,11,8.0,15.0,87,0.00,,---,0.00,VWS V14.01,2013-11-03 13:15:00,
2013-11-03 08:20:00,54.1,50.3,30.13,North,0,9.0,15.0,87,0.00,,---,0.00,VWS V14.01,2013-11-03 13:20:00,
2013-11-03 08:25:00,54.1,50.0,30.13,North,6,7.0,15.0,86,0.00,,---,0.00,VWS V14.01,2013-11-03 13:25:00,
2013-11-03 08:30:00,54.3,49.6,30.13,North,5,11.0,16.0,84,0.00,,---,0.00,VWS V14.01,2013-11-03 13:30:00,
2013-11-03 08:35:00,54.4,50.0,30.13,North,11,10.0,14.0,85,0.00,,---,0.00,VWS V14.01,2013-11-03 13:35:00,
2013-11-03 08:40:00,54.5,50.4,30.13,North,4,9.0,14.0,86,0.00,,---,0.00,VWS V14.01,2013-11-03 13:40:00,
2013-11-03 08:45:00,54.6,50.2,30.14,North,0,11.0,14.0,85,0.00,,---,0.00,VWS V14.01,2013-11-03 13:45:00,
2013-11-03 08:50:00,54.7,50.3,30.14,North,2,7.0,15.0,85,0.00,,---,0.00,VWS V14.01,2013-11-03 13:50:00,
2013-11-03 08:55:00,54.8,50.4,30.14,North,4,10.0,15.0,85,0.00,,---,0.00,VWS V14.01,2013-11-03 13:55:00,
2013-11-03 09:00:00,55.0,50.3,30.14,North,3,14.0,16.0,84,0.00,,---,0.00,VWS V14.01,2013-11-03 14:00:00,
2013-11-03 09:05:00,55.1,50.4,30.14,North,1,13.0,16.0,84,0.00,,---,0.00,VWS V14.01,2013-11-03 14:05:00,
2013-11-03 09:10:00,55.3,50.2,30.15,NNE,12,14.0,16.0,83,0.00,,---,0.00,VWS V14.01,2013-11-03 14:10:00,
2013-11-03 09:15:00,55.3,50.2,30.15,NNE,17,13.0,20.0,83,0.00,,---,0.00,VWS V14.01,2013-11-03 14:15:00,
2013-11-03 09:20:00,55.4,50.0,30.14,North,6,13.0,20.0,82,0.00,,---,0.00,VWS V14.01,2013-11-03 14:20:00,
2013-11-03 09:25:00,55.6,49.2,30.15,North,3,7.0,20.0,79,0.00,,---,0.00,VWS V14.01,2013-11-03 14:25:00,
2013-11-03 09:30:00,55.6,48.9,30.14,NNW,344,9.0,20.0,78,0.00,,---,0.00,VWS V14.01,2013-11-03 14:30:00,
2013-11-03 09:35:00,55.7,49.0,30.14,North,6,10.0,20.0,78,0.00,,---,0.00,VWS V14.01,2013-11-03 14:35:00,
2013-11-03 09:40:00,55.7,48.3,30.15,North,359,11.0,20.0,76,0.00,,---,0.00,VWS V14.01,2013-11-03 14:40:00,
2013-11-03 09:45:00,55.8,48.0,30.15,NNE,13,13.0,21.0,75,0.00,,---,0.00,VWS V14.01,2013-11-03 14:45:00,
2013-11-03 09:50:00,55.9,48.1,30.15,North,355,11.0,21.0,75,0.00,,---,0.00,VWS V14.01,2013-11-03 14:50:00,
2013-11-03 09:55:00,55.9,47.0,30.15,North,355,11.0,22.0,72,0.00,,---,0.00,VWS V14.01,2013-11-03 14:55:00,
2013-11-03 10:00:00,56.0,47.8,30.15,North,9,16.0,22.0,74,0.00,,---,0.00,VWS V14.01,2013-11-03 15:00:00,
2013-11-03 10:05:00,56.1,48.3,30.15,North,11,14.0,16.0,75,0.00,,---,0.00,VWS V14.01,2013-11-03 15:05:00,
2013-11-03 10:10:00,56.1,48.3,30.16,NNE,12,15.0,16.0,75,0.00,,---,0.00,VWS V14.01,2013-11-03 15:10:00,
2013-11-03 10:15:00,56.1,48.3,30.16,North,5,10.0,16.0,75,0.00,,---,0.00,VWS V14.01,2013-11-03 15:15:00,
2013-11-03 10:20:00,56.2,48.0,30.16,North,355,9.0,19.0,74,0.00,,---,0.00,VWS V14.01,2013-11-03 15:20:00,
2013-11-03 10:25:00,56.1,48.3,30.16,North,3,12.0,19.0,75,0.00,,---,0.00,VWS V14.01,2013-11-03 15:25:00,
2013-11-03 10:30:00,56.3,48.5,30.16,North,8,5.0,19.0,75,0.00,,---,0.00,VWS V14.01,2013-11-03 15:30:00,
2013-11-03 10:35:00,56.4,48.6,30.16,North,1,6.0,14.0,75,0.00,,---,0.00,VWS V14.01,2013-11-03 15:35:00,
2013-11-03 10:40:00,56.5,48.0,30.16,NNE,33,10.0,14.0,73,0.00,,---,0.00,VWS V14.01,2013-11-03 15:40:00,
2013-11-03 10:45:00,56.6,47.3,30.16,North,2,11.0,20.0,71,0.00,,---,0.00,VWS V14.01,2013-11-03 15:45:00,
2013-11-03 10:50:00,56.7,46.7,30.16,North,9,19.0,20.0,69,0.00,,---,0.00,VWS V14.01,2013-11-03 15:50:00,
2013-11-03 10:55:00,56.8,47.1,30.17,NNE,24,9.0,20.0,70,0.00,,---,0.00,VWS V14.01,2013-11-03 15:55:00,
2013-11-03 11:00:00,56.9,47.2,30.17,North,354,11.0,20.0,70,0.00,,---,0.00,VWS V14.01,2013-11-03 16:00:00,
2013-11-03 11:05:00,56.9,47.2,30.16,North,359,8.0,17.0,70,0.00,,---,0.00,VWS V14.01,2013-11-03 16:05:00,
2013-11-03 11:10:00,57.0,46.9,30.16,North,356,9.0,17.0,69,0.00,,---,0.00,VWS V14.01,2013-11-03 16:10:00,
2013-11-03 11:15:00,57.0,46.6,30.16,NNW,334,7.0,17.0,68,0.00,,---,0.00,VWS V14.01,2013-11-03 16:15:00,
2013-11-03 11:20:00,57.0,46.9,30.17,North,352,8.0,17.0,69,0.00,,---,0.00,VWS V14.01,2013-11-03 16:20:00,
2013-11-03 11:25:00,57.0,47.3,30.16,North,4,11.0,17.0,70,0.00,,---,0.00,VWS V14.01,2013-11-03 16:25:00,
2013-11-03 11:30:00,57.2,47.5,30.16,North,2,9.0,17.0,70,0.00,,---,0.00,VWS V14.01,2013-11-03 16:30:00,
2013-11-03 11:35:00,57.2,47.5,30.16,North,358,6.0,11.0,70,0.00,,---,0.00,VWS V14.01,2013-11-03 16:35:00,
2013-11-03 11:40:00,57.2,47.5,30.16,North,3,12.0,13.0,70,0.00,,---,0.00,VWS V14.01,2013-11-03 16:40:00,
2013-11-03 11:45:00,57.3,47.2,30.16,North,6,8.0,16.0,69,0.00,,---,0.00,VWS V14.01,2013-11-03 16:45:00,
2013-11-03 11:50:00,57.3,46.8,30.16,North,1,10.0,16.0,68,0.00,,---,0.00,VWS V14.01,2013-11-03 16:50:00,
2013-11-03 11:55:00,57.3,46.5,30.16,NE,35,7.0,16.0,67,0.00,,---,0.00,VWS V14.01,2013-11-03 16:55:00,
2013-11-03 12:00:00,57.3,46.8,30.16,NNW,342,10.0,16.0,68,0.00,,---,0.00,VWS V14.01,2013-11-03 17:00:00,
2013-11-03 12:01:00,57.3,46.5,30.16,North,5,7.0,16.0,67,0.00,,---,0.00,VWS V14.01,2013-11-03 17:01:00,
2013-11-03 12:06:00,57.4,47.7,30.15,North,2,10.0,14.0,70,0.00,,---,0.00,VWS V14.01,2013-11-03 17:06:00,
2013-11-03 12:11:00,57.5,46.6,30.15,NE,39,9.0,14.0,67,0.00,,---,0.00,VWS V14.01,2013-11-03 17:11:00,
2013-11-03 12:16:00,57.5,47.4,30.16,North,7,13.0,14.0,69,0.00,,---,0.00,VWS V14.01,2013-11-03 17:16:00,
2013-11-03 12:21:00,57.6,47.1,30.15,North,5,7.0,14.0,68,0.00,,---,0.00,VWS V14.01,2013-11-03 17:21:00,
2013-11-03 12:26:00,57.6,46.7,30.15,North,10,12.0,14.0,67,0.00,,---,0.00,VWS V14.01,2013-11-03 17:26:00,
2013-11-03 12:30:00,57.8,46.1,30.15,NNE,22,11.0,17.0,65,0.00,,---,0.00,VWS V14.01,2013-11-03 17:30:00,
2013-11-03 12:31:00,57.8,46.9,30.15,NNE,27,10.0,17.0,67,0.00,,---,0.00,VWS V14.01,2013-11-03 17:31:00,
2013-11-03 12:35:00,57.9,47.0,30.15,North,10,13.0,16.0,67,0.00,,---,0.00,VWS V14.01,2013-11-03 17:35:00,
2013-11-03 12:40:00,57.9,46.2,30.15,NNE,28,10.0,16.0,65,0.00,,---,0.00,VWS V14.01,2013-11-03 17:40:00,
2013-11-03 12:45:00,58.0,46.7,30.15,North,353,10.0,16.0,66,0.00,,---,0.00,VWS V14.01,2013-11-03 17:45:00,
2013-11-03 12:50:00,58.2,47.7,30.15,North,358,6.0,16.0,68,0.00,,---,0.00,VWS V14.01,2013-11-03 17:50:00,
2013-11-03 12:55:00,58.4,47.5,30.15,North,352,8.0,16.0,67,0.00,,---,0.00,VWS V14.01,2013-11-03 17:55:00,
2013-11-03 13:00:00,58.4,45.9,30.15,NNE,28,8.0,16.0,63,0.00,,---,0.00,VWS V14.01,2013-11-03 18:00:00,
2013-11-03 13:05:00,58.5,47.6,30.15,North,1,10.0,14.0,67,0.00,,---,0.00,VWS V14.01,2013-11-03 18:05:00,
2013-11-03 13:10:00,58.6,48.5,30.15,North,9,12.0,14.0,69,0.00,,---,0.00,VWS V14.01,2013-11-03 18:10:00,
2013-11-03 13:15:00,58.7,47.0,30.15,NNE,19,9.0,14.0,65,0.00,,---,0.00,VWS V14.01,2013-11-03 18:15:00,
2013-11-03 13:20:00,58.7,47.4,30.15,NNE,29,8.0,14.0,66,0.00,,---,0.00,VWS V14.01,2013-11-03 18:20:00,
2013-11-03 13:25:00,58.9,48.4,30.15,NNE,16,10.0,14.0,68,0.00,,---,0.00,VWS V14.01,2013-11-03 18:25:00,
2013-11-03 13:30:00,59.0,47.3,30.16,North,11,10.0,15.0,65,0.00,,---,0.00,VWS V14.01,2013-11-03 18:30:00,
2013-11-03 13:35:00,59.1,47.4,30.16,North,354,6.0,18.0,65,0.00,,---,0.00,VWS V14.01,2013-11-03 18:35:00,
2013-11-03 13:40:00,59.2,48.7,30.16,NNE,12,9.0,18.0,68,0.00,,---,0.00,VWS V14.01,2013-11-03 18:40:00,
2013-11-03 13:45:00,59.2,46.6,30.16,NNE,33,11.0,18.0,63,0.00,,---,0.00,VWS V14.01,2013-11-03 18:45:00,
2013-11-03 13:50:00,59.1,46.5,30.16,NE,37,9.0,18.0,63,0.00,,---,0.00,VWS V14.01,2013-11-03 18:50:00,
2013-11-03 13:55:00,59.2,47.5,30.16,North,9,7.0,18.0,65,0.00,,---,0.00,VWS V14.01,2013-11-03 18:55:00,
2013-11-03 14:00:00,59.3,47.5,30.16,NNE,13,8.0,18.0,65,0.01,,---,0.01,VWS V14.01,2013-11-03 19:00:00,
2013-11-03 14:05:00,59.6,47.8,30.16,North,0,11.0,16.0,65,0.01,,---,0.01,VWS V14.01,2013-11-03 19:05:00,
2013-11-03 14:10:00,59.7,47.9,30.16,North,1,6.0,16.0,65,0.01,,---,0.01,VWS V14.01,2013-11-03 19:10:00,
2013-11-03 14:15:00,59.7,47.9,30.16,NNE,22,8.0,16.0,65,0.01,,---,0.01,VWS V14.01,2013-11-03 19:15:00,
2013-11-03 14:20:00,59.8,48.0,30.16,North,2,4.0,16.0,65,0.01,,---,0.01,VWS V14.01,2013-11-03 19:20:00,
2013-11-03 14:25:00,59.6,47.0,30.16,NNE,12,9.0,16.0,63,0.01,,---,0.01,VWS V14.01,2013-11-03 19:25:00,
2013-11-03 14:30:00,59.8,48.0,30.16,NNE,19,11.0,16.0,65,0.01,,---,0.01,VWS V14.01,2013-11-03 19:30:00,
2013-11-03 14:35:00,59.9,47.3,30.16,North,9,12.0,14.0,63,0.01,,---,0.01,VWS V14.01,2013-11-03 19:35:00,
2013-11-03 14:40:00,59.8,47.6,30.17,North,1,5.0,14.0,64,0.01,,---,0.01,VWS V14.01,2013-11-03 19:40:00,
2013-11-03 14:45:00,59.9,46.9,30.17,North,6,7.0,15.0,62,0.01,,---,0.01,VWS V14.01,2013-11-03 19:45:00,
2013-11-03 14:50:00,60.0,48.6,30.17,NNE,25,7.0,15.0,66,0.01,,---,0.01,VWS V14.01,2013-11-03 19:50:00,
2013-11-03 14:55:00,60.0,47.8,30.17,North,353,5.0,15.0,64,0.01,,---,0.01,VWS V14.01,2013-11-03 19:55:00,
2013-11-03 15:00:00,59.9,48.1,30.17,North,4,10.0,15.0,65,0.01,,---,0.01,VWS V14.01,2013-11-03 20:00:00,
2013-11-03 15:05:00,59.9,47.3,30.17,NNE,13,6.0,12.0,63,0.00,,---,0.01,VWS V14.01,2013-11-03 20:05:00,
2013-11-03 15:10:00,59.9,48.1,30.17,North,8,9.0,13.0,65,0.00,,---,0.01,VWS V14.01,2013-11-03 20:10:00,
2013-11-03 15:15:00,59.9,47.3,30.17,North,6,9.0,13.0,63,0.00,,---,0.01,VWS V14.01,2013-11-03 20:15:00,
2013-11-03 15:20:00,60.0,48.2,30.18,North,9,12.0,13.0,65,0.00,,---,0.01,VWS V14.01,2013-11-03 20:20:00,
2013-11-03 15:25:00,59.9,48.1,30.18,NNE,25,7.0,13.0,65,0.00,,---,0.01,VWS V14.01,2013-11-03 20:25:00,
2013-11-03 15:30:00,59.9,47.7,30.19,North,3,6.0,13.0,64,0.00,,---,0.01,VWS V14.01,2013-11-03 20:30:00,
2013-11-03 15:35:00,59.8,48.4,30.18,North,357,3.0,11.0,66,0.00,,---,0.01,VWS V14.01,2013-11-03 20:35:00,
2013-11-03 15:40:00,59.8,46.3,30.19,NNE,15,13.0,13.0,61,0.00,,---,0.01,VWS V14.01,2013-11-03 20:40:00,
2013-11-03 15:45:00,59.8,47.2,30.19,North,3,2.0,15.0,63,0.00,,---,0.01,VWS V14.01,2013-11-03 20:45:00,
2013-11-03 15:50:00,59.8,46.8,30.19,North,0,3.0,15.0,62,0.00,,---,0.01,VWS V14.01,2013-11-03 20:50:00,
2013-11-03 15:55:00,59.8,47.6,30.19,North,0,5.0,15.0,64,0.00,,---,0.01,VWS V14.01,2013-11-03 20:55:00,
2013-11-03 16:00:00,59.8,47.6,30.19,North,6,9.0,15.0,64,0.00,,---,0.01,VWS V14.01,2013-11-03 21:00:00,
2013-11-03 16:05:00,59.8,46.3,30.19,North,10,8.0,13.0,61,0.00,,---,0.01,VWS V14.01,2013-11-03 21:05:00,
2013-11-03 16:10:00,59.8,48.0,30.19,North,354,8.0,13.0,65,0.00,,---,0.01,VWS V14.01,2013-11-03 21:10:00,
2013-11-03 16:15:00,59.8,48.0,30.19,North,4,4.0,13.0,65,0.00,,---,0.01,VWS V14.01,2013-11-03 21:15:00,
2013-11-03 16:20:00,59.7,47.9,30.19,North,7,8.0,13.0,65,0.00,,---,0.01,VWS V14.01,2013-11-03 21:20:00,
2013-11-03 16:25:00,59.7,47.9,30.20,North,3,4.0,13.0,65,0.00,,---,0.01,VWS V14.01,2013-11-03 21:25:00,
2013-11-03 16:30:00,59.7,47.9,30.20,North,11,6.0,13.0,65,0.00,,---,0.01,VWS V14.01,2013-11-03 21:30:00,
2013-11-03 16:35:00,59.6,48.2,30.20,North,2,4.0,11.0,66,0.00,,---,0.01,VWS V14.01,2013-11-03 21:35:00,
2013-11-03 16:40:00,59.5,48.2,30.20,North,4,8.0,11.0,66,0.00,,---,0.01,VWS V14.01,2013-11-03 21:40:00,
2013-11-03 16:45:00,59.4,47.7,30.20,North,8,7.0,12.0,65,0.00,,---,0.01,VWS V14.01,2013-11-03 21:45:00,
2013-11-03 16:50:00,59.3,47.5,30.21,North,9,10.0,12.0,65,0.00,,---,0.01,VWS V14.01,2013-11-03 21:50:00,
2013-11-03 16:55:00,59.1,47.8,30.21,North,7,10.0,12.0,66,0.00,,---,0.01,VWS V14.01,2013-11-03 21:55:00,
2013-11-03 17:00:00,59.0,47.7,30.21,NNE,31,7.0,12.0,66,0.00,,---,0.01,VWS V14.01,2013-11-03 22:00:00,
2013-11-03 17:05:00,58.8,47.1,30.22,North,2,6.0,10.0,65,0.00,,---,0.01,VWS V14.01,2013-11-03 22:05:00,
2013-11-03 17:11:00,58.6,47.7,30.22,North,11,7.0,10.0,67,0.00,,---,0.01,VWS V14.01,2013-11-03 22:11:00,
2013-11-03 17:16:00,58.5,48.0,30.22,North,10,4.0,10.0,68,0.00,,---,0.01,VWS V14.01,2013-11-03 22:16:00,
2013-11-03 17:21:00,58.3,47.8,30.23,NNE,28,4.0,10.0,68,0.00,,---,0.01,VWS V14.01,2013-11-03 22:21:00,
2013-11-03 17:26:00,58.2,47.3,30.23,North,0,5.0,10.0,67,0.00,,---,0.01,VWS V14.01,2013-11-03 22:26:00,
2013-11-03 17:30:00,58.1,48.0,30.23,North,4,5.0,10.0,69,0.00,,---,0.01,VWS V14.01,2013-11-03 22:30:00,
2013-11-03 17:31:00,58.1,48.0,30.23,North,0,3.0,10.0,69,0.00,,---,0.01,VWS V14.01,2013-11-03 22:31:00,
2013-11-03 17:36:00,57.9,48.2,30.24,North,1,8.0,8.0,70,0.00,,---,0.01,VWS V14.01,2013-11-03 22:36:00,
2013-11-03 17:41:00,57.8,47.7,30.24,NNE,20,7.0,9.0,69,0.00,,---,0.01,VWS V14.01,2013-11-03 22:41:00,
2013-11-03 17:46:00,57.7,48.0,30.24,North,6,6.0,10.0,70,0.00,,---,0.01,VWS V14.01,2013-11-03 22:46:00,
2013-11-03 17:51:00,57.6,47.9,30.24,North,6,6.0,10.0,70,0.00,,---,0.01,VWS V14.01,2013-11-03 22:51:00,
2013-11-03 17:55:00,57.5,47.8,30.24,NNE,20,6.0,10.0,70,0.00,,---,0.01,VWS V14.01,2013-11-03 22:55:00,
2013-11-03 18:00:00,57.3,47.6,30.25,North,10,5.0,10.0,70,0.00,,---,0.01,VWS V14.01,2013-11-03 23:00:00,
2013-11-03 18:05:00,57.2,47.5,30.25,NNE,20,7.0,12.0,70,0.00,,---,0.01,VWS V14.01,2013-11-03 23:05:00,
2013-11-03 18:10:00,57.1,47.8,30.25,North,5,6.0,12.0,71,0.00,,---,0.01,VWS V14.01,2013-11-03 23:10:00,
2013-11-03 18:15:00,57.0,48.1,30.25,NNE,12,5.0,12.0,72,0.00,,---,0.01,VWS V14.01,2013-11-03 23:15:00,
2013-11-03 18:20:00,56.9,47.2,30.26,North,10,7.0,12.0,70,0.00,,---,0.01,VWS V14.01,2013-11-03 23:20:00,
2013-11-03 18:25:00,56.8,47.1,30.26,North,9,6.0,12.0,70,0.00,,---,0.01,VWS V14.01,2013-11-03 23:25:00,
2013-11-03 18:30:00,56.7,47.0,30.26,North,5,6.0,12.0,70,0.00,,---,0.01,VWS V14.01,2013-11-03 23:30:00,
2013-11-03 18:35:00,56.6,47.7,30.26,North,5,7.0,10.0,72,0.00,,---,0.01,VWS V14.01,2013-11-03 23:35:00,
2013-11-03 20:26:00,55.4,48.0,30.31,North,0,8.0,15.0,76,0.00,,---,0.01,VWS V14.01,2013-11-04 01:26:00,
2013-11-03 20:31:00,55.2,47.4,30.31,North,3,7.0,10.0,75,0.00,,---,0.01,VWS V14.01,2013-11-04 01:31:00,
2013-11-03 20:36:00,55.2,47.8,30.31,North,8,7.0,11.0,76,0.00,,---,0.01,VWS V14.01,2013-11-04 01:36:00,
2013-11-03 20:41:00,55.1,47.7,30.32,NNE,15,9.0,11.0,76,0.00,,---,0.01,VWS V14.01,2013-11-04 01:41:00,
2013-11-03 20:46:00,55.0,47.6,30.32,NNE,25,8.0,11.0,76,0.00,,---,0.01,VWS V14.01,2013-11-04 01:46:00,
2013-11-03 20:51:00,55.0,47.6,30.33,North,11,5.0,11.0,76,0.00,,---,0.01,VWS V14.01,2013-11-04 01:51:00,
2013-11-03 20:56:00,55.0,47.9,30.33,NNE,19,9.0,12.0,77,0.00,,---,0.01,VWS V14.01,2013-11-04 01:56:00,
2013-11-03 21:01:00,54.9,47.5,30.33,NNE,15,9.0,12.0,76,0.00,,---,0.01,VWS V14.01,2013-11-04 02:01:00,
2013-11-03 21:06:00,54.9,48.2,30.33,NNE,16,11.0,12.0,78,0.00,,---,0.01,VWS V14.01,2013-11-04 02:06:00,
2013-11-03 21:11:00,54.9,48.2,30.34,NNE,27,9.0,12.0,78,0.00,,---,0.01,VWS V14.01,2013-11-04 02:11:00,
2013-11-03 21:16:00,54.8,48.4,30.34,NNE,16,8.0,12.0,79,0.00,,---,0.01,VWS V14.01,2013-11-04 02:16:00,
2013-11-03 21:21:00,54.7,48.3,30.34,NNE,21,7.0,12.0,79,0.00,,---,0.01,VWS V14.01,2013-11-04 02:21:00,
2013-11-03 21:26:00,54.7,48.3,30.35,NE,38,8.0,12.0,79,0.00,,---,0.01,VWS V14.01,2013-11-04 02:26:00,
2013-11-03 21:31:00,54.6,48.2,30.35,NE,44,7.0,12.0,79,0.00,,---,0.01,VWS V14.01,2013-11-04 02:31:00,
2013-11-03 21:36:00,54.5,48.1,30.35,NNE,33,8.0,12.0,79,0.00,,---,0.01,VWS V14.01,2013-11-04 02:36:00,
2013-11-03 21:41:00,54.5,48.1,30.35,North,10,7.0,12.0,79,0.00,,---,0.01,VWS V14.01,2013-11-04 02:41:00,
2013-11-03 21:46:00,54.5,48.5,30.35,NNE,31,9.0,13.0,80,0.00,,---,0.01,VWS V14.01,2013-11-04 02:46:00,
2013-11-03 21:51:00,54.4,48.0,30.36,NNE,27,10.0,13.0,79,0.00,,---,0.01,VWS V14.01,2013-11-04 02:51:00,
2013-11-03 21:56:00,54.3,47.9,30.36,NNE,27,9.0,13.0,79,0.00,,---,0.01,VWS V14.01,2013-11-04 02:56:00,
2013-11-03 22:01:00,54.3,47.9,30.35,NE,35,8.0,13.0,79,0.00,,---,0.01,VWS V14.01,2013-11-04 03:01:00,
2013-11-03 22:07:00,54.2,47.8,30.35,NNE,31,9.0,14.0,79,0.00,,---,0.01,VWS V14.01,2013-11-04 03:07:00,
2013-11-03 22:12:00,54.2,47.5,30.36,NNE,22,12.0,14.0,78,0.00,,---,0.01,VWS V14.01,2013-11-04 03:12:00,
2013-11-03 22:17:00,54.2,47.5,30.36,NNE,33,10.0,14.0,78,0.00,,---,0.01,VWS V14.01,2013-11-04 03:17:00,
2013-11-03 22:22:00,54.2,47.5,30.36,NNE,30,10.0,14.0,78,0.00,,---,0.01,VWS V14.01,2013-11-04 03:22:00,
2013-11-03 22:27:00,54.1,47.1,30.35,NNE,27,8.0,14.0,77,0.00,,---,0.01,VWS V14.01,2013-11-04 03:27:00,
2013-11-03 22:32:00,54.0,47.3,30.35,NE,35,8.0,14.0,78,0.00,,---,0.01,VWS V14.01,2013-11-04 03:32:00,
2013-11-03 22:37:00,53.9,46.9,30.35,NE,38,7.0,13.0,77,0.00,,---,0.01,VWS V14.01,2013-11-04 03:37:00,
2013-11-03 22:42:00,53.9,47.2,30.35,NE,39,11.0,13.0,78,0.00,,---,0.01,VWS V14.01,2013-11-04 03:42:00,
2013-11-03 22:47:00,53.8,47.1,30.35,NE,49,9.0,13.0,78,0.00,,---,0.01,VWS V14.01,2013-11-04 03:47:00,
2013-11-03 22:52:00,53.7,46.7,30.35,NE,52,7.0,13.0,77,0.00,,---,0.01,VWS V14.01,2013-11-04 03:52:00,
2013-11-03 22:57:00,53.6,45.5,30.35,NE,34,12.0,16.0,74,0.00,,---,0.01,VWS V14.01,2013-11-04 03:57:00,
2013-11-03 23:02:00,53.5,44.7,30.35,NE,37,9.0,14.0,72,0.00,,---,0.01,VWS V14.01,2013-11-04 04:02:00,
2013-11-03 23:07:00,53.4,44.2,30.35,NNE,14,9.0,18.0,71,0.00,,---,0.01,VWS V14.01,2013-11-04 04:07:00,
2013-11-03 23:12:00,53.3,44.2,30.35,NE,46,14.0,18.0,71,0.00,,---,0.01,VWS V14.01,2013-11-04 04:12:00,
2013-11-03 23:17:00,53.2,43.7,30.35,NE,37,12.0,18.0,70,0.00,,---,0.01,VWS V14.01,2013-11-04 04:17:00,
2013-11-03 23:22:00,53.2,44.4,30.35,NNE,26,11.0,18.0,72,0.00,,---,0.01,VWS V14.01,2013-11-04 04:22:00,
2013-11-03 23:27:00,53.1,43.6,30.35,NNE,27,11.0,18.0,70,0.00,,---,0.01,VWS V14.01,2013-11-04 04:27:00,
2013-11-03 23:32:00,53.0,43.5,30.35,NNE,24,7.0,10.0,70,0.00,,---,0.01,VWS V14.01,2013-11-04 04:32:00,
2013-11-03 23:37:00,52.9,43.4,30.35,NNE,29,9.0,11.0,70,0.00,,---,0.01,VWS V14.01,2013-11-04 04:37:00,
2013-11-03 23:42:00,52.8,43.3,30.35,NE,34,9.0,14.0,70,0.00,,---,0.01,VWS V14.01,2013-11-04 04:42:00,
2013-11-03 23:47:00,52.8,43.7,30.35,NNE,20,10.0,14.0,71,0.00,,---,0.01,VWS V14.01,2013-11-04 04:47:00,
2013-11-03 23:52:00,52.7,43.2,30.36,NE,41,8.0,15.0,70,0.00,,---,0.01,VWS V14.01,2013-11-04 04:52:00,
2013-11-03 23:57:00,52.7,43.6,30.36,NNE,24,10.0,15.0,71,0.00,,---,0.01,VWS V14.01,2013-11-04 04:57:00,